Boys Town, Nebraska
Current Conditions -  °F | °C
As of 8:35 AM on Saturday 22 Nov 2014 (Local Time) from KMLE Reporting Station
Haze Haze  
Wind Chill: 34°   Ceiling: 300
Heat Index: 40°   Visibility: 3mi
Dew Point: 38°   Wind: 8mph
Humidity: 93%   Direction: 200°SSW
Pressure: 29.85"   Gusts: NA
Location:  41.26°N, 96.13°W
Report Text: KMLE 221435Z AUTO 20007KT 3SM BR OVC003 04/03 A2985 RMK AO2 T00440033
Loading
Personal Weather Stations






























Interactive Weather Map New forecast layout! Learn more

10-Day Weather Forecast

Advertisements
Track Severe Weather on mobile